Time;durP1;ratioP1;P1;durP2;ratioP2;P2;SDS_P1;SDS_P2;PMS_P1;PMS_P2;Temp;Humidity;BMP_temperature;BMP_pressure;BME280_temperature;BME280_humidity;BME280_pressure;Samples;Min_cycle;Max_cycle;Signal;HPM_P1;HPM_P2
2023/06/09 00:02:52;;;;;;;16.23;5.00;;;;;;;11.33;100.00;101758.78;10412083;28;20081;-72
2023/06/09 00:07:55;;;;;;;17.45;5.40;;;;;;;11.30;100.00;101753.72;10378592;28;20069;-71
2023/06/09 00:12:57;;;;;;;15.00;5.75;;;;;;;11.31;100.00;101759.00;10377072;28;20044;-71
2023/06/09 00:17:57;;;;;;;12.65;4.82;;;;;;;11.28;100.00;101758.63;10376521;28;20088;-71
2023/06/09 00:22:58;;;;;;;16.75;5.95;;;;;;;11.24;100.00;101755.50;10371757;28;20459;-72
2023/06/09 00:27:59;;;;;;;14.77;5.22;;;;;;;11.22;100.00;101754.91;10366211;28;20045;-71
2023/06/09 00:32:59;;;;;;;16.88;6.25;;;;;;;11.19;100.00;101755.38;10356783;28;20045;-71
2023/06/09 00:38:00;;;;;;;16.40;5.35;;;;;;;11.20;100.00;101750.72;10376467;28;20109;-71
2023/06/09 00:43:00;;;;;;;10.18;5.03;;;;;;;11.17;100.00;101753.94;10382897;28;20045;-71
2023/06/09 00:48:01;;;;;;;20.58;6.72;;;;;;;10.90;100.00;101741.44;10377817;28;20042;-69
2023/06/09 00:53:01;;;;;;;20.08;5.68;;;;;;;11.14;100.00;101749.75;10375572;28;20240;-70
2023/06/09 00:58:02;;;;;;;20.55;6.43;;;;;;;11.15;100.00;101750.59;10358140;28;20446;-71
2023/06/09 01:03:02;;;;;;;15.00;5.25;;;;;;;11.16;100.00;101746.75;10368555;28;20049;-72
2023/06/09 01:08:07;;;;;;;14.80;5.93;;;;;;;11.14;100.00;101743.38;10368881;28;20042;-71
2023/06/09 01:13:13;;;;;;;15.00;7.38;;;;;;;11.12;100.00;101749.16;10376543;28;20049;-71
2023/06/09 01:18:14;;;;;;;20.50;5.53;;;;;;;11.03;100.00;101734.88;10368526;28;20072;-71
2023/06/09 01:23:51;;;;;;;19.98;5.78;;;;;;;11.09;100.00;101738.59;10374935;28;20045;-71
2023/06/09 01:28:51;;;;;;;22.60;6.50;;;;;;;11.06;100.00;101730.81;10376787;28;20069;-71
2023/06/09 01:33:52;;;;;;;21.73;7.00;;;;;;;11.11;100.00;101742.78;10373823;28;20469;-70
2023/06/09 01:38:52;;;;;;;14.45;4.90;;;;;;;11.10;100.00;101738.38;10373570;28;20398;-70
2023/06/09 01:43:53;;;;;;;24.95;8.43;;;;;;;11.09;100.00;101731.16;10368627;28;20128;-69
2023/06/09 01:49:02;;;;;;;22.23;6.88;;;;;;;11.09;100.00;101727.56;10376046;28;20034;-69
2023/06/09 01:54:07;;;;;;;15.40;6.70;;;;;;;11.10;100.00;101721.84;10342607;28;20104;-69
2023/06/09 01:59:10;;;;;;;14.48;6.07;;;;;;;11.11;100.00;101723.50;10376269;28;20034;-69
2023/06/09 02:04:11;;;;;;;20.05;6.35;;;;;;;11.05;100.00;101716.19;10334995;28;20068;-70
2023/06/09 02:09:12;;;;;;;20.60;6.80;;;;;;;11.13;100.00;101708.66;10359053;28;20049;-70
2023/06/09 02:14:12;;;;;;;23.75;7.20;;;;;;;11.14;100.00;101700.16;10381630;28;20049;-70
2023/06/09 02:19:14;;;;;;;21.05;7.25;;;;;;;11.15;100.00;101701.00;10382712;28;20042;-69
2023/06/09 02:24:15;;;;;;;20.20;7.15;;;;;;;11.16;100.00;101694.38;10376310;28;20037;-70
2023/06/09 02:29:15;;;;;;;22.00;6.82;;;;;;;11.17;100.00;101696.06;10380785;28;20038;-69
2023/06/09 02:34:16;;;;;;;20.77;6.78;;;;;;;11.01;100.00;101667.28;10355672;28;20035;-69
2023/06/09 02:39:17;;;;;;;20.42;7.93;;;;;;;11.19;100.00;101694.75;10340051;28;20042;-68
2023/06/09 02:44:17;;;;;;;19.17;7.65;;;;;;;11.19;100.00;101696.69;10366189;28;20414;-70
2023/06/09 02:49:18;;;;;;;21.02;7.30;;;;;;;11.19;100.00;101697.50;10373352;28;20411;-70
2023/06/09 02:54:19;;;;;;;15.23;6.80;;;;;;;11.16;100.00;101683.34;10375378;28;20049;-70
2023/06/09 02:59:19;;;;;;;21.70;6.55;;;;;;;11.18;100.00;101694.97;10372806;28;20470;-70
2023/06/09 03:04:20;;;;;;;30.05;7.63;;;;;;;11.20;100.00;101701.09;10380588;28;20080;-70
2023/06/09 03:09:21;;;;;;;20.52;8.02;;;;;;;11.18;100.00;101694.97;10381431;28;20030;-70
2023/06/09 03:14:23;;;;;;;27.80;7.65;;;;;;;11.22;100.00;101712.72;10380200;28;20037;-70
2023/06/09 03:19:24;;;;;;;28.13;7.72;;;;;;;11.23;100.00;101706.16;10373181;28;20049;-69
2023/06/09 03:24:25;;;;;;;22.58;7.15;;;;;;;11.26;100.00;101708.41;10378412;28;20056;-70
2023/06/09 03:29:28;;;;;;;21.65;7.30;;;;;;;11.28;100.00;101711.78;10378565;28;20045;-69
2023/06/09 03:34:29;;;;;;;15.35;7.38;;;;;;;11.29;100.00;101706.03;10379858;28;20046;-69
2023/06/09 03:39:29;;;;;;;18.48;6.63;;;;;;;11.30;100.00;101715.97;10362071;28;20105;-72
2023/06/09 03:44:30;;;;;;;16.80;7.70;;;;;;;11.33;100.00;101714.66;10361844;28;20034;-69
2023/06/09 03:49:31;;;;;;;23.23;6.95;;;;;;;11.35;100.00;101700.63;10370179;28;20061;-70
2023/06/09 03:54:31;;;;;;;18.45;7.03;;;;;;;11.40;100.00;101698.00;10377707;28;20045;-73
2023/06/09 03:59:32;;;;;;;20.65;6.53;;;;;;;11.44;100.00;101710.22;10378586;28;20041;-70
2023/06/09 04:04:32;;;;;;;26.33;8.35;;;;;;;11.49;100.00;101697.41;10377007;28;20126;-69
2023/06/09 04:09:33;;;;;;;22.30;8.15;;;;;;;11.52;100.00;101702.44;10379451;28;20061;-69
2023/06/09 04:14:34;;;;;;;16.17;7.95;;;;;;;11.61;100.00;101715.84;10378149;28;20037;-70
2023/06/09 04:19:34;;;;;;;18.40;7.22;;;;;;;11.65;100.00;101703.25;10376047;28;20038;-70
2023/06/09 04:24:35;;;;;;;19.55;7.60;;;;;;;11.68;100.00;101716.59;10371719;28;20036;-71
2023/06/09 04:29:36;;;;;;;24.45;9.27;;;;;;;11.70;100.00;101725.47;10360192;28;20034;-70
2023/06/09 04:34:38;;;;;;;24.23;8.25;;;;;;;11.71;100.00;101718.84;10374697;28;20050;-69
2023/06/09 04:39:45;;;;;;;18.50;7.65;;;;;;;11.75;100.00;101711.75;10359716;28;20042;-70
2023/06/09 04:44:49;;;;;;;26.77;8.63;;;;;;;11.93;100.00;101719.09;10376796;28;20102;-71
2023/06/09 04:49:50;;;;;;;24.38;9.95;;;;;;;12.02;100.00;101709.34;10374205;28;20421;-70
2023/06/09 04:54:51;;;;;;;25.55;11.90;;;;;;;12.11;100.00;101716.19;10359613;28;20038;-70
2023/06/09 04:59:53;;;;;;;29.70;11.27;;;;;;;12.19;100.00;101692.84;10375712;28;20062;-70
2023/06/09 05:04:53;;;;;;;26.83;11.32;;;;;;;12.43;100.00;101723.16;10374658;28;20037;-70
2023/06/09 05:09:54;;;;;;;29.05;9.90;;;;;;;12.52;100.00;101702.34;10375110;28;20037;-70
2023/06/09 05:14:54;;;;;;;22.80;10.93;;;;;;;12.81;100.00;101716.13;10375175;28;20038;-70
2023/06/09 05:19:55;;;;;;;21.63;10.27;;;;;;;12.93;100.00;101714.13;10365352;28;20509;-70
2023/06/09 05:24:56;;;;;;;25.65;10.55;;;;;;;13.02;100.00;101715.41;10352118;28;20084;-70
2023/06/09 05:29:56;;;;;;;21.67;10.20;;;;;;;13.09;100.00;101709.72;10374606;28;20493;-70
2023/06/09 05:34:57;;;;;;;32.08;10.48;;;;;;;13.09;100.00;101704.19;10343011;28;20405;-70
2023/06/09 05:39:57;;;;;;;27.40;10.35;;;;;;;13.21;100.00;101702.19;10373300;28;20050;-70
2023/06/09 05:44:58;;;;;;;22.45;9.57;;;;;;;13.29;100.00;101701.78;10354913;28;20058;-71
2023/06/09 05:49:58;;;;;;;27.35;10.25;;;;;;;13.34;100.00;101717.63;10342057;28;20030;-70
2023/06/09 05:55:00;;;;;;;26.02;9.55;;;;;;;13.53;100.00;101716.25;10342435;28;20085;-72
2023/06/09 06:00:07;;;;;;;25.92;9.07;;;;;;;13.73;100.00;101714.88;10343761;28;20096;-72
2023/06/09 06:05:08;;;;;;;21.23;10.43;;;;;;;14.13;100.00;101717.34;10327409;28;20038;-72
2023/06/09 06:10:09;;;;;;;20.60;8.55;;;;;;;14.29;100.00;101696.22;10340888;28;20042;-70
2023/06/09 06:15:10;;;;;;;20.48;9.50;;;;;;;14.70;100.00;101715.25;10369437;28;20038;-70
2023/06/09 06:20:11;;;;;;;22.33;8.90;;;;;;;15.05;100.00;101712.00;10380962;28;20108;-71
2023/06/09 06:25:13;;;;;;;14.85;7.72;;;;;;;15.31;100.00;101706.63;10382760;28;20026;-70
2023/06/09 06:30:13;;;;;;;14.10;6.57;;;;;;;15.65;100.00;101717.44;10383175;28;20406;-71
2023/06/09 06:35:22;;;;;;;13.75;6.10;;;;;;;15.89;100.00;101718.69;10381502;28;20041;-70
2023/06/09 06:40:22;;;;;;;14.18;5.22;;;;;;;16.03;100.00;101715.44;10380905;28;20049;-70
2023/06/09 06:45:23;;;;;;;14.65;6.57;;;;;;;16.20;100.00;101713.28;10379513;28;20038;-71
2023/06/09 06:50:23;;;;;;;11.20;5.55;;;;;;;16.59;100.00;101709.25;10380620;28;20410;-70
2023/06/09 06:55:24;;;;;;;14.50;5.95;;;;;;;17.00;100.00;101712.94;10381082;28;20073;-71
2023/06/09 07:00:25;;;;;;;18.75;5.70;;;;;;;17.18;100.00;101710.72;10364071;28;20049;-71
2023/06/09 07:05:25;;;;;;;14.90;5.82;;;;;;;17.44;100.00;101714.31;10381654;28;20457;-70
2023/06/09 07:10:26;;;;;;;12.20;5.85;;;;;;;17.71;100.00;101708.41;10380809;28;20030;-72
2023/06/09 07:15:26;;;;;;;13.57;6.45;;;;;;;17.82;100.00;101704.50;10378963;28;20038;-71
2023/06/09 07:20:27;;;;;;;12.73;5.15;;;;;;;18.15;100.00;101700.25;10378362;28;20034;-71
2023/06/09 07:25:27;;;;;;;8.10;4.22;;;;;;;18.32;100.00;101696.25;10380677;28;20033;-70
2023/06/09 07:30:27;;;;;;;14.20;5.18;;;;;;;18.54;100.00;101682.75;10381980;28;20049;-70
2023/06/09 07:35:29;;;;;;;18.20;5.85;;;;;;;18.79;100.00;101685.66;10361934;28;20045;-71
2023/06/09 07:40:30;;;;;;;12.27;4.60;;;;;;;19.18;100.00;101679.22;10358715;28;20049;-71
2023/06/09 07:45:30;;;;;;;13.90;5.45;;;;;;;19.46;100.00;101691.53;10358243;28;20041;-71
2023/06/09 07:50:31;;;;;;;10.65;4.50;;;;;;;19.64;100.00;101681.56;10357771;28;20045;-70
2023/06/09 07:55:31;;;;;;;11.40;5.30;;;;;;;19.78;100.00;101674.16;10358091;28;20705;-71
2023/06/09 08:00:32;;;;;;;8.05;4.30;;;;;;;20.09;100.00;101687.75;10358164;28;20388;-70
2023/06/09 08:05:32;;;;;;;10.55;4.43;;;;;;;20.35;100.00;101677.91;10357190;28;20108;-71
2023/06/09 08:10:33;;;;;;;8.30;4.43;;;;;;;20.67;100.00;101687.56;10356680;28;20035;-71
2023/06/09 08:15:33;;;;;;;8.40;3.75;;;;;;;20.87;100.00;101668.75;10343627;28;20041;-70
2023/06/09 08:20:34;;;;;;;7.80;3.85;;;;;;;20.93;100.00;101668.38;10355471;28;20109;-71
2023/06/09 08:25:35;;;;;;;12.18;3.70;;;;;;;21.06;100.00;101661.16;10356914;28;20470;-71
2023/06/09 08:30:35;;;;;;;9.75;3.67;;;;;;;21.34;100.00;101659.25;10354561;28;20030;-71
2023/06/09 08:35:36;;;;;;;14.18;5.10;;;;;;;21.50;100.00;101645.84;10357218;28;20039;-70
2023/06/09 08:40:36;;;;;;;9.63;3.88;;;;;;;21.82;100.00;101648.84;10329476;28;20106;-71
2023/06/09 08:45:37;;;;;;;12.18;4.97;;;;;;;22.06;100.00;101637.41;10353088;28;20036;-71
2023/06/09 08:50:41;;;;;;;14.85;3.80;;;;;;;22.32;100.00;101629.28;10326925;28;20081;-70
2023/06/09 08:55:41;;;;;;;9.27;3.55;;;;;;;22.55;100.00;101632.94;10344537;28;20026;-70
2023/06/09 09:00:42;;;;;;;8.75;2.85;;;;;;;22.83;100.00;101610.38;10339023;28;20038;-69
2023/06/09 09:05:46;;;;;;;6.00;2.78;;;;;;;23.08;100.00;101615.34;10334815;28;20110;-71
2023/06/09 09:10:46;;;;;;;10.15;4.25;;;;;;;23.20;100.00;101619.56;10344938;28;20057;-71
2023/06/09 09:15:50;;;;;;;6.95;2.70;;;;;;;23.43;100.00;101618.34;10370080;28;20041;-70
2023/06/09 09:20:51;;;;;;;10.15;3.17;;;;;;;23.74;100.00;101618.28;10370220;28;20076;-70
2023/06/09 09:25:52;;;;;;;8.15;3.35;;;;;;;23.99;100.00;101623.53;10375484;28;20042;-71
2023/06/09 09:30:54;;;;;;;7.20;3.28;;;;;;;24.37;99.10;101613.31;10382113;28;20062;-70
2023/06/09 09:35:58;;;;;;;8.70;3.08;;;;;;;24.64;96.94;101611.34;10366826;28;20042;-69
2023/06/09 09:40:59;;;;;;;4.85;2.67;;;;;;;24.71;93.74;101611.66;10359371;28;20126;-72
2023/06/09 09:46:07;;;;;;;10.30;3.28;;;;;;;24.82;90.25;101611.31;10382919;28;20045;-70
2023/06/09 09:51:11;;;;;;;7.03;2.70;;;;;;;24.62;91.86;101546.09;10382091;28;20049;-71
2023/06/09 09:56:11;;;;;;;9.75;3.50;;;;;;;25.24;86.33;101583.41;10382827;28;20133;-69
2023/06/09 10:01:12;;;;;;;7.60;3.08;;;;;;;25.60;87.90;101610.28;10382563;28;20045;-69
2023/06/09 10:06:13;;;;;;;3.97;2.45;;;;;;;25.94;83.12;101595.19;10382438;28;20041;-69
2023/06/09 10:11:14;;;;;;;6.53;3.60;;;;;;;25.94;82.19;101590.38;10383402;28;20038;-70
2023/06/09 10:16:15;;;;;;;3.67;2.38;;;;;;;26.08;78.08;101581.63;10370352;28;20048;-70
2023/06/09 10:21:15;;;;;;;5.22;2.90;;;;;;;26.15;80.95;101579.09;10368430;28;20065;-70
2023/06/09 10:26:16;;;;;;;6.15;2.83;;;;;;;26.38;78.56;101559.81;10348899;28;20050;-69
2023/06/09 10:31:16;;;;;;;5.82;3.00;;;;;;;26.67;77.71;101577.03;10362352;28;20026;-69
2023/06/09 10:36:17;;;;;;;5.72;3.00;;;;;;;26.91;77.00;101579.91;10379728;28;20517;-69
2023/06/09 10:41:37;;;;;;;6.55;2.60;;;;;;;27.14;72.43;101562.53;10382278;28;20069;-70
2023/06/09 10:46:41;;;;;;;4.20;2.80;;;;;;;27.17;72.29;101561.84;10381431;28;20109;-70
2023/06/09 10:51:42;;;;;;;5.68;2.63;;;;;;;27.48;73.07;101566.97;10382917;28;20038;-69
2023/06/09 10:56:46;;;;;;;8.32;3.30;;;;;;;27.77;72.02;101562.22;10364174;28;20038;-70
2023/06/09 11:01:59;;;;;;;7.35;3.17;;;;;;;28.06;70.50;101551.84;10361740;28;20117;-71
2023/06/09 11:07:16;;;;;;;7.30;3.33;;;;;;;28.15;70.06;101555.34;10359912;28;20502;-70
2023/06/09 11:12:49;;;;;;;4.53;2.80;;;;;;;28.40;69.30;101549.59;10356576;28;20160;-70
2023/06/09 11:17:53;;;;;;;7.72;3.25;;;;;;;28.47;67.88;101544.97;10359839;28;20038;-71
2023/06/09 11:23:00;;;;;;;6.40;2.80;;;;;;;28.52;67.00;101529.75;10365181;28;20058;-70
2023/06/09 11:28:00;;;;;;;5.60;3.13;;;;;;;28.72;67.36;101545.69;10373462;28;20065;-71
2023/06/09 11:33:04;;;;;;;7.83;3.00;;;;;;;28.80;65.16;101526.06;10381380;28;20046;-71
2023/06/09 11:38:08;;;;;;;6.40;3.22;;;;;;;29.08;64.90;101532.47;10344796;28;20300;-71
2023/06/09 11:43:09;;;;;;;6.60;2.80;;;;;;;29.21;65.91;101523.91;10391334;28;20486;-70
2023/06/09 11:48:10;;;;;;;5.28;3.13;;;;;;;29.36;64.35;101529.56;10362040;28;20053;-72
2023/06/09 11:53:12;;;;;;;5.07;2.90;;;;;;;29.60;66.52;101527.69;10380314;28;20034;-72
2023/06/09 11:58:14;;;;;;;5.15;3.55;;;;;;;29.60;64.22;101522.00;10377963;28;20037;-71
2023/06/09 12:03:18;;;;;;;7.40;3.72;;;;;;;30.11;63.57;101519.13;10377792;28;20049;-70
2023/06/09 12:08:18;;;;;;;7.43;4.07;;;;;;;30.38;62.37;101517.28;10377054;28;20042;-70
2023/06/09 12:13:19;;;;;;;6.80;3.40;;;;;;;30.51;64.32;101526.50;10379384;28;20061;-70
2023/06/09 12:18:21;;;;;;;6.70;3.67;;;;;;;30.68;62.14;101495.94;10376824;28;20038;-70
2023/06/09 12:23:27;;;;;;;4.47;3.22;;;;;;;31.09;62.38;101505.66;10377656;28;20030;-70
2023/06/09 12:28:27;;;;;;;4.65;3.20;;;;;;;31.76;60.96;101505.06;10377018;28;20089;-70
2023/06/09 12:33:31;;;;;;;9.05;3.47;;;;;;;32.08;57.86;101495.34;10378732;28;20053;-70
2023/06/09 12:38:35;;;;;;;6.80;3.60;;;;;;;31.50;57.73;101485.16;10378372;28;20422;-76
2023/06/09 12:43:51;;;;;;;7.53;3.75;;;;;;;31.65;57.20;101480.50;10375304;28;20046;-75
2023/06/09 12:49:28;;;;;;;8.02;3.95;;;;;;;31.72;57.57;101481.44;10376740;28;20041;-72
2023/06/09 12:54:29;;;;;;;7.32;3.97;;;;;;;32.22;56.37;101489.81;10373167;28;20040;-69
2023/06/09 12:59:29;;;;;;;6.85;3.63;;;;;;;32.42;55.39;101492.50;10365338;28;20038;-71
2023/06/09 13:04:29;;;;;;;4.20;3.65;;;;;;;32.06;54.11;101477.81;10352880;28;20038;-71
2023/06/09 13:09:30;;;;;;;10.80;4.15;;;;;;;32.10;55.54;101467.28;10349681;28;20051;-72
2023/06/09 13:14:30;;;;;;;6.53;3.38;;;;;;;32.41;54.78;101466.03;10345337;28;20049;-71
2023/06/09 13:19:31;;;;;;;8.40;3.67;;;;;;;32.64;55.01;101474.44;10375361;28;20037;-72
2023/06/09 13:24:31;;;;;;;7.82;3.63;;;;;;;32.87;53.50;101471.41;10359385;28;20045;-71
2023/06/09 13:29:32;;;;;;;9.65;4.20;;;;;;;33.00;54.11;101477.63;10355862;28;20045;-71
2023/06/09 13:34:32;;;;;;;6.85;4.22;;;;;;;33.31;53.99;101472.59;10355715;28;20038;-71
2023/06/09 13:39:33;;;;;;;8.63;3.38;;;;;;;33.77;53.04;101474.94;10342062;28;20054;-71
2023/06/09 13:44:33;;;;;;;5.60;3.55;;;;;;;33.72;52.40;101475.31;10371232;28;20065;-72
2023/06/09 13:49:34;;;;;;;7.13;4.07;;;;;;;33.41;52.39;101463.28;10374367;28;20053;-72
2023/06/09 13:54:34;;;;;;;5.55;3.83;;;;;;;33.39;53.24;101467.75;10376238;28;20045;-72
2023/06/09 13:59:36;;;;;;;4.25;3.33;;;;;;;34.04;52.58;101458.31;10374276;28;20034;-71
2023/06/09 14:04:37;;;;;;;8.57;3.75;;;;;;;33.79;51.29;101441.06;10376757;28;20046;-71
2023/06/09 14:09:39;;;;;;;5.18;4.03;;;;;;;33.91;51.20;101449.28;10365060;28;20597;-73
2023/06/09 14:14:39;;;;;;;5.63;3.58;;;;;;;34.27;52.59;101448.63;10383729;28;20041;-72
2023/06/09 14:19:41;;;;;;;6.22;3.55;;;;;;;34.31;51.53;101452.31;10382796;28;20467;-71
2023/06/09 14:24:41;;;;;;;5.68;4.18;;;;;;;34.27;50.25;101434.31;10382887;28;20038;-71
2023/06/09 14:29:42;;;;;;;9.00;3.35;;;;;;;33.89;50.17;101434.59;10383268;28;20512;-72
2023/06/09 14:34:43;;;;;;;5.68;3.65;;;;;;;33.83;50.59;101433.34;10383272;28;20042;-71
2023/06/09 14:39:43;;;;;;;6.63;3.88;;;;;;;33.43;51.28;101434.34;10381649;28;20060;-71
2023/06/09 14:44:44;;;;;;;7.63;3.92;;;;;;;33.40;50.62;101440.84;10381512;28;20038;-71
2023/06/09 14:49:45;;;;;;;8.30;4.15;;;;;;;33.47;50.49;101396.03;10363411;28;20049;-71
2023/06/09 14:54:47;;;;;;;4.35;3.55;;;;;;;33.51;50.65;101427.44;10378491;28;20046;-72
2023/06/09 14:59:47;;;;;;;6.10;4.10;;;;;;;34.14;50.39;101428.19;10381481;28;20038;-68
2023/06/09 15:04:48;;;;;;;9.95;3.60;;;;;;;34.33;50.22;101418.41;10381573;28;20093;-70
2023/06/09 15:09:48;;;;;;;5.15;3.72;;;;;;;34.04;48.42;101394.66;10379522;28;20046;-69
2023/06/09 15:14:49;;;;;;;6.72;3.97;;;;;;;33.81;50.71;101409.28;10376445;28;20038;-74
2023/06/09 15:19:49;;;;;;;6.72;4.18;;;;;;;34.52;49.35;101411.50;10375611;28;20034;-71
2023/06/09 15:24:54;;;;;;;9.35;3.47;;;;;;;34.20;49.45;101400.84;10377988;28;20026;-72
2023/06/09 15:29:54;;;;;;;5.13;3.22;;;;;;;34.29;50.33;101421.25;10379238;28;20097;-71
2023/06/09 15:34:55;;;;;;;5.78;3.33;;;;;;;33.52;50.95;101406.25;10340235;28;20053;-71
2023/06/09 15:39:55;;;;;;;9.40;3.53;;;;;;;33.65;49.94;101416.13;10337164;28;20648;-70
2023/06/09 15:44:56;;;;;;;5.13;3.78;;;;;;;33.86;49.47;101406.00;10377243;28;20053;-74
2023/06/09 15:49:56;;;;;;;5.70;3.70;;;;;;;33.15;48.52;101413.78;10378394;28;20411;-70
2023/06/09 15:54:57;;;;;;;6.25;3.83;;;;;;;33.88;48.18;101400.72;10377865;28;20099;-71
2023/06/09 15:59:57;;;;;;;6.15;3.58;;;;;;;33.47;47.29;101404.59;10377994;28;20038;-70
2023/06/09 16:04:58;;;;;;;6.18;3.58;;;;;;;32.98;46.61;101397.34;10378493;28;20049;-71
2023/06/09 16:09:58;;;;;;;4.25;2.92;;;;;;;33.13;46.90;101399.09;10379935;28;20037;-72
2023/06/09 16:14:59;;;;;;;6.60;3.50;;;;;;;33.69;48.51;101401.88;10394430;28;20038;-71
2023/06/09 16:20:01;;;;;;;5.45;3.30;;;;;;;33.49;48.02;101405.03;10405882;28;20041;-70
2023/06/09 16:25:01;;;;;;;5.43;3.28;;;;;;;33.43;48.36;101402.97;10417870;28;20041;-69
2023/06/09 16:30:02;;;;;;;10.60;3.20;;;;;;;33.03;49.80;101408.34;10419656;28;20037;-72
2023/06/09 16:35:03;;;;;;;9.55;3.33;;;;;;;33.45;49.55;101407.03;10387707;28;20115;-71
2023/06/09 16:40:04;;;;;;;7.43;3.60;;;;;;;33.19;49.23;101413.00;10377838;28;20034;-69
2023/06/09 16:45:05;;;;;;;5.93;3.25;;;;;;;32.16;51.08;101372.56;10376825;28;20041;-74
2023/06/09 16:50:06;;;;;;;8.57;3.08;;;;;;;31.12;52.83;101376.09;10359329;28;20037;-69
2023/06/09 16:55:07;;;;;;;7.03;3.35;;;;;;;29.80;55.66;101417.91;10377711;28;20030;-68
2023/06/09 17:00:08;;;;;;;5.13;3.40;;;;;;;28.66;58.63;101430.16;10371272;28;20045;-71
2023/06/09 17:05:09;;;;;;;8.13;3.38;;;;;;;27.30;59.73;101424.19;10394504;28;20046;-73
2023/06/09 17:10:10;;;;;;;8.27;3.40;;;;;;;26.98;61.27;101440.91;10357365;28;20523;-70
2023/06/09 17:15:10;;;;;;;5.57;3.38;;;;;;;26.91;62.17;101440.66;10374801;28;20050;-71
2023/06/09 17:20:11;;;;;;;5.35;3.40;;;;;;;26.56;63.44;101458.00;10395523;28;20096;-73
2023/06/09 17:25:12;;;;;;;6.93;3.20;;;;;;;25.92;63.04;101443.22;10414764;28;20051;-69
2023/06/09 17:30:13;;;;;;;7.20;3.92;;;;;;;25.68;64.12;101462.78;10402524;28;20030;-72
2023/06/09 17:35:13;;;;;;;8.88;3.58;;;;;;;25.09;66.47;101441.06;10396614;28;20043;-70
2023/06/09 17:40:14;;;;;;;5.53;2.97;;;;;;;24.96;67.96;101465.50;10409837;28;20496;-72
2023/06/09 17:45:14;;;;;;;9.05;3.35;;;;;;;24.84;68.14;101468.19;10383240;28;20132;-69
2023/06/09 17:50:15;;;;;;;7.10;2.67;;;;;;;24.57;68.62;101479.53;10409237;28;20060;-70
2023/06/09 17:55:15;;;;;;;7.22;4.30;;;;;;;24.48;68.83;101472.25;10417318;28;20030;-70
2023/06/09 18:00:16;;;;;;;5.43;2.80;;;;;;;24.24;69.12;101473.59;10403051;28;20050;-70
2023/06/09 18:05:17;;;;;;;6.00;2.72;;;;;;;24.09;70.80;101476.94;10383004;28;20046;-70
2023/06/09 18:10:17;;;;;;;7.47;2.70;;;;;;;23.85;70.85;101483.88;10421171;28;20042;-70
2023/06/09 18:15:18;;;;;;;5.35;3.10;;;;;;;23.65;72.27;101488.13;10421407;28;20485;-70
2023/06/09 18:20:18;;;;;;;10.57;3.38;;;;;;;23.50;71.86;101499.84;10423372;28;20033;-70
2023/06/09 18:25:19;;;;;;;11.02;3.45;;;;;;;23.31;72.32;101494.50;10422876;28;20041;-70
2023/06/09 18:30:19;;;;;;;6.63;2.78;;;;;;;23.10;73.18;101497.06;10411865;28;20049;-69
2023/06/09 18:35:21;;;;;;;7.05;2.35;;;;;;;22.91;73.89;101508.53;10414655;28;20049;-69
2023/06/09 18:40:22;;;;;;;7.63;2.90;;;;;;;22.81;75.08;101506.00;10407256;28;20461;-70
2023/06/09 18:45:24;;;;;;;4.18;2.50;;;;;;;22.54;74.06;101494.63;10420613;28;20038;-69
2023/06/09 18:50:25;;;;;;;6.32;2.30;;;;;;;22.33;74.73;101490.69;10394974;28;20562;-70
2023/06/09 18:55:26;;;;;;;8.07;3.00;;;;;;;22.26;76.12;101513.59;10411191;28;20029;-69
2023/06/09 19:00:26;;;;;;;8.80;2.78;;;;;;;22.01;75.90;101502.94;10404181;28;20029;-70
2023/06/09 19:05:27;;;;;;;6.38;3.17;;;;;;;21.81;77.10;101516.28;10419853;28;20038;-69
2023/06/09 19:10:28;;;;;;;6.45;2.90;;;;;;;21.66;78.59;101519.41;10414589;28;20033;-70
2023/06/09 19:15:28;;;;;;;7.03;2.80;;;;;;;21.50;79.80;101528.16;10389211;28;20045;-65
2023/06/09 19:20:29;;;;;;;7.22;2.90;;;;;;;21.23;79.64;101519.72;10397192;28;20030;-69
2023/06/09 19:25:29;;;;;;;7.10;2.42;;;;;;;21.12;80.08;101541.50;10419558;28;20034;-67
2023/06/09 19:30:30;;;;;;;9.65;3.28;;;;;;;20.92;81.69;101548.34;10390870;28;20065;-67
2023/06/09 19:35:30;;;;;;;7.93;3.28;;;;;;;20.65;83.19;101535.94;10393007;28;20041;-68
2023/06/09 19:40:31;;;;;;;9.35;3.42;;;;;;;20.58;84.66;101557.03;10380160;28;20053;-68
2023/06/09 19:45:31;;;;;;;5.35;2.90;;;;;;;20.37;87.46;101557.34;10403903;28;20037;-67
2023/06/09 19:50:34;;;;;;;7.75;3.20;;;;;;;20.20;88.79;101566.28;10387260;28;20045;-68
2023/06/09 19:55:35;;;;;;;6.15;2.80;;;;;;;20.01;91.39;101573.81;10384467;28;20161;-67
2023/06/09 20:00:36;;;;;;;6.03;3.25;;;;;;;19.78;93.36;101573.56;10395865;28;20053;-70
2023/06/09 20:05:36;;;;;;;8.90;3.13;;;;;;;19.63;96.33;101574.56;10399965;28;20033;-68
2023/06/09 20:10:37;;;;;;;8.48;3.63;;;;;;;19.46;99.64;101583.44;10410176;28;20094;-68
2023/06/09 20:15:37;;;;;;;8.02;2.95;;;;;;;19.32;100.00;101588.91;10404611;28;20044;-68
2023/06/09 20:20:38;;;;;;;6.00;3.35;;;;;;;19.18;100.00;101601.88;10408816;28;20034;-68
2023/06/09 20:25:38;;;;;;;7.63;3.13;;;;;;;19.00;100.00;101606.28;10368098;28;20072;-67
2023/06/09 20:30:39;;;;;;;7.95;3.78;;;;;;;18.69;100.00;101595.34;10374246;28;20080;-68
2023/06/09 20:35:39;;;;;;;8.07;3.13;;;;;;;18.73;100.00;101618.75;10368658;28;20045;-66
2023/06/09 20:40:40;;;;;;;6.65;2.97;;;;;;;18.57;100.00;101610.78;10384966;28;20041;-67
2023/06/09 20:45:42;;;;;;;6.78;3.08;;;;;;;18.44;100.00;101606.69;10393906;28;20034;-68
2023/06/09 20:50:43;;;;;;;10.90;4.07;;;;;;;18.34;100.00;101622.38;10385107;28;20037;-67
2023/06/09 20:55:43;;;;;;;7.03;3.17;;;;;;;18.22;100.00;101633.03;10378941;28;20053;-66
2023/06/09 21:00:44;;;;;;;7.32;3.30;;;;;;;18.09;100.00;101637.28;10405023;28;20030;-67
2023/06/09 21:05:45;;;;;;;4.85;3.75;;;;;;;17.99;100.00;101637.34;10354401;28;20072;-67
2023/06/09 21:10:47;;;;;;;7.45;3.90;;;;;;;17.62;100.00;101612.69;10375067;28;20339;-67
2023/06/09 21:15:47;;;;;;;7.65;3.63;;;;;;;17.68;100.00;101636.59;10365648;28;20547;-67
2023/06/09 21:20:48;;;;;;;9.52;3.90;;;;;;;17.63;100.00;101647.75;10373885;28;20072;-67
2023/06/09 21:25:48;;;;;;;9.40;3.80;;;;;;;17.43;100.00;101645.88;10417439;28;20034;-68
2023/06/09 21:30:49;;;;;;;6.22;3.50;;;;;;;17.39;100.00;101662.28;10393605;28;20049;-66
2023/06/09 21:35:50;;;;;;;11.40;3.67;;;;;;;17.29;100.00;101662.31;10402149;28;20033;-68
2023/06/09 21:40:50;;;;;;;8.73;3.47;;;;;;;17.00;100.00;101632.28;10405522;28;20057;-68
2023/06/09 21:45:51;;;;;;;10.80;5.15;;;;;;;17.13;100.00;101667.03;10412157;28;20072;-67
2023/06/09 21:50:51;;;;;;;8.02;3.80;;;;;;;17.07;100.00;101666.19;10389584;28;20588;-68
2023/06/09 21:55:52;;;;;;;9.98;3.83;;;;;;;16.65;100.00;101624.75;10391455;28;20287;-68
2023/06/09 22:00:53;;;;;;;8.68;4.47;;;;;;;16.88;100.00;101685.41;10377432;28;20041;-67
2023/06/09 22:05:53;;;;;;;7.78;3.92;;;;;;;16.75;100.00;101683.97;10403283;28;20042;-68
2023/06/09 22:10:55;;;;;;;9.23;3.80;;;;;;;16.61;100.00;101685.63;10375077;28;20057;-69
2023/06/09 22:15:56;;;;;;;7.75;3.70;;;;;;;16.49;100.00;101674.75;10404144;28;20040;-68
2023/06/09 22:20:59;;;;;;;8.00;3.78;;;;;;;16.48;100.00;101692.53;10397674;28;20042;-68
2023/06/09 22:26:01;;;;;;;9.75;3.83;;;;;;;16.46;100.00;101689.19;10404955;28;20409;-68
2023/06/09 22:31:01;;;;;;;5.32;3.28;;;;;;;16.40;100.00;101693.06;10402229;28;20100;-68
2023/06/09 22:36:03;;;;;;;8.23;3.30;;;;;;;16.33;100.00;101696.13;10384361;28;20456;-68
2023/06/09 22:41:05;;;;;;;9.25;3.33;;;;;;;16.22;100.00;101685.22;10399431;28;20041;-68
2023/06/09 22:46:05;;;;;;;6.55;3.20;;;;;;;16.20;100.00;101691.06;10387803;28;20045;-67
2023/06/09 22:51:07;;;;;;;10.10;3.55;;;;;;;16.15;100.00;101696.59;10399009;28;20116;-68